sensor_id;sensor_type;location;lat;lon;timestamp;pressure;altitude;pressure_sealevel;temperature;humidity
64698;BME280;51124;53.394;-6.294;2023-02-12T00:00:10;102887.09;;;18.43;9.76
64698;BME280;51124;53.394;-6.294;2023-02-12T00:02:34;102886.33;;;17.99;9.44
64698;BME280;51124;53.394;-6.294;2023-02-12T00:05:07;102884.84;;;18.13;9.45
64698;BME280;51124;53.394;-6.294;2023-02-12T00:07:40;102884.45;;;17.86;9.27
64698;BME280;51124;53.394;-6.294;2023-02-12T00:10:14;102887.86;;;18.43;9.61
64698;BME280;51124;53.394;-6.294;2023-02-12T00:12:48;102886.14;;;18.63;9.32
64698;BME280;51124;53.394;-6.294;2023-02-12T00:15:22;102886.81;;;18.46;9.23
64698;BME280;51124;53.394;-6.294;2023-02-12T00:17:55;102889.40;;;18.66;9.10
64698;BME280;51124;53.394;-6.294;2023-02-12T00:20:29;102887.02;;;18.03;9.02
64698;BME280;51124;53.394;-6.294;2023-02-12T00:23:02;102891.86;;;18.05;8.88
64698;BME280;51124;53.394;-6.294;2023-02-12T00:25:39;102890.52;;;18.45;8.78
64698;BME280;51124;53.394;-6.294;2023-02-12T00:28:03;102895.17;;;17.68;8.75
64698;BME280;51124;53.394;-6.294;2023-02-12T00:30:36;102894.27;;;18.43;8.68
64698;BME280;51124;53.394;-6.294;2023-02-12T00:33:10;102893.36;;;18.47;8.65
64698;BME280;51124;53.394;-6.294;2023-02-12T00:35:43;102892.63;;;17.78;8.55
64698;BME280;51124;53.394;-6.294;2023-02-12T00:38:17;102887.82;;;18.36;8.47
64698;BME280;51124;53.394;-6.294;2023-02-12T00:40:50;102888.48;;;18.41;8.52
64698;BME280;51124;53.394;-6.294;2023-02-12T00:43:24;102890.34;;;18.72;8.46
64698;BME280;51124;53.394;-6.294;2023-02-12T00:45:57;102888.59;;;17.95;8.51
64698;BME280;51124;53.394;-6.294;2023-02-12T00:48:31;102884.77;;;18.29;8.51
64698;BME280;51124;53.394;-6.294;2023-02-12T00:51:05;102885.93;;;18.31;8.49
64698;BME280;51124;53.394;-6.294;2023-02-12T00:53:38;102880.96;;;17.86;8.40
64698;BME280;51124;53.394;-6.294;2023-02-12T00:56:12;102877.57;;;17.62;8.40
64698;BME280;51124;53.394;-6.294;2023-02-12T00:58:45;102887.12;;;17.91;8.41
64698;BME280;51124;53.394;-6.294;2023-02-12T01:01:18;102874.26;;;18.44;8.41
64698;BME280;51124;53.394;-6.294;2023-02-12T01:03:52;102873.39;;;18.48;8.42
64698;BME280;51124;53.394;-6.294;2023-02-12T01:06:27;102872.42;;;18.44;8.37
64698;BME280;51124;53.394;-6.294;2023-02-12T01:08:53;102871.12;;;18.43;8.38
64698;BME280;51124;53.394;-6.294;2023-02-12T01:11:18;102865.56;;;18.27;8.40
64698;BME280;51124;53.394;-6.294;2023-02-12T01:13:44;102864.63;;;17.86;8.37
64698;BME280;51124;53.394;-6.294;2023-02-12T01:16:19;102859.03;;;19.11;8.39
64698;BME280;51124;53.394;-6.294;2023-02-12T01:18:36;102864.90;;;17.98;8.52
64698;BME280;51124;53.394;-6.294;2023-02-12T01:21:02;102857.37;;;18.19;8.42
64698;BME280;51124;53.394;-6.294;2023-02-12T01:23:32;102856.04;;;18.83;8.40
64698;BME280;51124;53.394;-6.294;2023-02-12T01:25:58;102858.69;;;17.87;8.50
64698;BME280;51124;53.394;-6.294;2023-02-12T01:28:23;102850.02;;;18.52;8.46
64698;BME280;51124;53.394;-6.294;2023-02-12T01:30:49;102844.36;;;18.46;8.50
64698;BME280;51124;53.394;-6.294;2023-02-12T01:33:14;102837.30;;;17.96;8.49
64698;BME280;51124;53.394;-6.294;2023-02-12T01:35:39;102837.00;;;17.97;8.45
64698;BME280;51124;53.394;-6.294;2023-02-12T01:38:04;102841.73;;;18.12;8.38
64698;BME280;51124;53.394;-6.294;2023-02-12T01:40:30;102841.40;;;18.39;8.32
64698;BME280;51124;53.394;-6.294;2023-02-12T01:42:58;102844.42;;;18.06;8.39
64698;BME280;51124;53.394;-6.294;2023-02-12T01:45:59;102844.83;;;20.96;8.78
64698;BME280;51124;53.394;-6.294;2023-02-12T01:47:54;102837.95;;;20.23;9.19
64698;BME280;51124;53.394;-6.294;2023-02-12T01:50:20;102836.23;;;19.30;9.32
64698;BME280;51124;53.394;-6.294;2023-02-12T01:52:48;102835.92;;;18.76;9.21
64698;BME280;51124;53.394;-6.294;2023-02-12T01:55:16;102837.51;;;21.53;9.56
64698;BME280;51124;53.394;-6.294;2023-02-12T01:57:46;102834.06;;;21.33;9.97
64698;BME280;51124;53.394;-6.294;2023-02-12T02:00:15;102828.84;;;21.30;10.26
64698;BME280;51124;53.394;-6.294;2023-02-12T02:02:43;102824.09;;;20.94;10.38
64698;BME280;51124;53.394;-6.294;2023-02-12T02:05:10;102822.59;;;20.53;10.63
64698;BME280;51124;53.394;-6.294;2023-02-12T02:07:37;102818.26;;;20.18;10.67
64698;BME280;51124;53.394;-6.294;2023-02-12T02:10:04;102816.42;;;19.95;10.83
64698;BME280;51124;53.394;-6.294;2023-02-12T02:12:30;102819.29;;;20.22;10.85
64698;BME280;51124;53.394;-6.294;2023-02-12T02:14:58;102815.30;;;20.15;10.82
64698;BME280;51124;53.394;-6.294;2023-02-12T02:17:35;102819.42;;;19.98;10.91
64698;BME280;51124;53.394;-6.294;2023-02-12T02:22:31;102810.29;;;20.37;10.92
64698;BME280;51124;53.394;-6.294;2023-02-12T02:25:14;102807.87;;;20.36;10.93
64698;BME280;51124;53.394;-6.294;2023-02-12T02:27:32;102815.31;;;20.58;10.95
64698;BME280;51124;53.394;-6.294;2023-02-12T02:30:28;102815.32;;;20.40;11.05
64698;BME280;51124;53.394;-6.294;2023-02-12T02:32:39;102813.46;;;19.74;11.02
64698;BME280;51124;53.394;-6.294;2023-02-12T02:35:12;102818.36;;;19.44;11.10
64698;BME280;51124;53.394;-6.294;2023-02-12T02:37:44;102815.89;;;19.96;11.09
64698;BME280;51124;53.394;-6.294;2023-02-12T02:40:16;102816.84;;;20.11;11.01
64698;BME280;51124;53.394;-6.294;2023-02-12T02:42:47;102816.74;;;20.53;11.02
64698;BME280;51124;53.394;-6.294;2023-02-12T02:45:19;102820.69;;;18.46;10.93
64698;BME280;51124;53.394;-6.294;2023-02-12T02:47:54;102815.91;;;17.76;10.50
64698;BME280;51124;53.394;-6.294;2023-02-12T02:50:22;102810.89;;;18.08;10.14
64698;BME280;51124;53.394;-6.294;2023-02-12T02:52:52;102819.38;;;18.29;9.84
64698;BME280;51124;53.394;-6.294;2023-02-12T02:55:23;102818.07;;;18.54;9.62
64698;BME280;51124;53.394;-6.294;2023-02-12T02:57:54;102821.89;;;17.73;9.46
64698;BME280;51124;53.394;-6.294;2023-02-12T03:00:23;102819.25;;;18.22;9.20
64698;BME280;51124;53.394;-6.294;2023-02-12T03:02:52;102815.40;;;17.19;9.03
64698;BME280;51124;53.394;-6.294;2023-02-12T03:05:23;102813.39;;;18.22;8.95
64698;BME280;51124;53.394;-6.294;2023-02-12T03:07:51;102814.99;;;18.17;8.90
64698;BME280;51124;53.394;-6.294;2023-02-12T03:10:21;102811.11;;;17.82;8.87
64698;BME280;51124;53.394;-6.294;2023-02-12T03:12:52;102806.88;;;17.80;8.84
64698;BME280;51124;53.394;-6.294;2023-02-12T03:15:23;102803.52;;;18.65;8.78
64698;BME280;51124;53.394;-6.294;2023-02-12T03:17:50;102799.05;;;17.84;8.71
64698;BME280;51124;53.394;-6.294;2023-02-12T03:20:18;102791.04;;;17.66;8.56
64698;BME280;51124;53.394;-6.294;2023-02-12T03:22:49;102796.54;;;17.43;8.59
64698;BME280;51124;53.394;-6.294;2023-02-12T03:25:19;102790.06;;;17.36;8.52
64698;BME280;51124;53.394;-6.294;2023-02-12T03:27:51;102792.99;;;17.84;8.49
64698;BME280;51124;53.394;-6.294;2023-02-12T03:30:18;102790.88;;;17.18;8.55
64698;BME280;51124;53.394;-6.294;2023-02-12T03:32:49;102794.98;;;17.73;8.41
64698;BME280;51124;53.394;-6.294;2023-02-12T03:35:22;102792.89;;;17.28;8.50
64698;BME280;51124;53.394;-6.294;2023-02-12T03:37:55;102793.33;;;18.21;8.48
64698;BME280;51124;53.394;-6.294;2023-02-12T03:40:26;102789.76;;;18.52;8.36
64698;BME280;51124;53.394;-6.294;2023-02-12T03:42:55;102785.43;;;18.12;8.34
64698;BME280;51124;53.394;-6.294;2023-02-12T03:45:33;102782.50;;;18.28;8.34
64698;BME280;51124;53.394;-6.294;2023-02-12T03:48:01;102779.12;;;18.04;8.40
64698;BME280;51124;53.394;-6.294;2023-02-12T03:50:20;102778.55;;;17.92;8.35
64698;BME280;51124;53.394;-6.294;2023-02-12T03:52:51;102770.64;;;17.27;8.31
64698;BME280;51124;53.394;-6.294;2023-02-12T03:55:17;102773.83;;;18.39;8.29
64698;BME280;51124;53.394;-6.294;2023-02-12T03:57:45;102772.19;;;17.80;8.36
64698;BME280;51124;53.394;-6.294;2023-02-12T04:00:18;102773.06;;;17.36;8.39
64698;BME280;51124;53.394;-6.294;2023-02-12T04:02:45;102768.94;;;17.78;8.30
64698;BME280;51124;53.394;-6.294;2023-02-12T04:05:17;102769.72;;;18.37;8.41
64698;BME280;51124;53.394;-6.294;2023-02-12T04:07:43;102770.83;;;17.88;8.44
64698;BME280;51124;53.394;-6.294;2023-02-12T04:10:09;102769.40;;;17.51;8.37
64698;BME280;51124;53.394;-6.294;2023-02-12T04:12:39;102771.83;;;15.99;8.41
64698;BME280;51124;53.394;-6.294;2023-02-12T04:15:21;102775.01;;;17.91;8.34
64698;BME280;51124;53.394;-6.294;2023-02-12T04:17:38;102771.81;;;17.71;8.42
64698;BME280;51124;53.394;-6.294;2023-02-12T04:20:13;102773.03;;;18.22;8.41
64698;BME280;51124;53.394;-6.294;2023-02-12T04:22:49;102769.94;;;17.56;8.40
64698;BME280;51124;53.394;-6.294;2023-02-12T04:25:19;102767.80;;;17.98;8.49
64698;BME280;51124;53.394;-6.294;2023-02-12T04:27:39;102768.54;;;18.31;8.53
64698;BME280;51124;53.394;-6.294;2023-02-12T04:30:12;102770.92;;;17.49;8.48
64698;BME280;51124;53.394;-6.294;2023-02-12T04:32:45;102773.08;;;17.57;8.32
64698;BME280;51124;53.394;-6.294;2023-02-12T04:35:17;102771.97;;;17.90;8.29
64698;BME280;51124;53.394;-6.294;2023-02-12T04:37:47;102770.62;;;17.35;8.41
64698;BME280;51124;53.394;-6.294;2023-02-12T04:40:17;102775.73;;;20.16;8.43
64698;BME280;51124;53.394;-6.294;2023-02-12T04:42:44;102784.57;;;20.39;8.95
64698;BME280;51124;53.394;-6.294;2023-02-12T04:45:10;102778.73;;;18.80;9.26
64698;BME280;51124;53.394;-6.294;2023-02-12T04:47:36;102782.10;;;18.17;9.27
64698;BME280;51124;53.394;-6.294;2023-02-12T04:50:02;102785.14;;;21.86;9.21
64698;BME280;51124;53.394;-6.294;2023-02-12T04:52:28;102784.45;;;21.24;9.85
64698;BME280;51124;53.394;-6.294;2023-02-12T04:54:54;102791.34;;;20.08;10.18
64698;BME280;51124;53.394;-6.294;2023-02-12T04:57:19;102790.24;;;20.21;10.39
64698;BME280;51124;53.394;-6.294;2023-02-12T04:59:45;102796.89;;;19.45;10.56
64698;BME280;51124;53.394;-6.294;2023-02-12T05:02:11;102794.48;;;20.37;10.69
64698;BME280;51124;53.394;-6.294;2023-02-12T05:04:36;102805.67;;;19.81;10.75
64698;BME280;51124;53.394;-6.294;2023-02-12T05:07:02;102803.86;;;19.76;10.77
64698;BME280;51124;53.394;-6.294;2023-02-12T05:09:28;102806.92;;;20.21;10.90
64698;BME280;51124;53.394;-6.294;2023-02-12T05:11:54;102806.20;;;19.49;10.89
64698;BME280;51124;53.394;-6.294;2023-02-12T05:14:22;102804.52;;;19.38;10.99
64698;BME280;51124;53.394;-6.294;2023-02-12T05:16:48;102800.98;;;20.04;10.91
64698;BME280;51124;53.394;-6.294;2023-02-12T05:19:14;102800.23;;;19.57;11.03
64698;BME280;51124;53.394;-6.294;2023-02-12T05:21:39;102800.47;;;19.69;10.97
64698;BME280;51124;53.394;-6.294;2023-02-12T05:24:06;102803.07;;;20.01;11.02
64698;BME280;51124;53.394;-6.294;2023-02-12T05:26:32;102806.78;;;19.99;10.88
64698;BME280;51124;53.394;-6.294;2023-02-12T05:28:58;102807.71;;;19.99;11.02
64698;BME280;51124;53.394;-6.294;2023-02-12T05:31:24;102805.88;;;19.23;11.01
64698;BME280;51124;53.394;-6.294;2023-02-12T05:33:50;102802.44;;;20.09;10.97
64698;BME280;51124;53.394;-6.294;2023-02-12T05:36:18;102800.34;;;19.73;11.04
64698;BME280;51124;53.394;-6.294;2023-02-12T05:38:44;102800.47;;;19.44;10.94
64698;BME280;51124;53.394;-6.294;2023-02-12T05:41:12;102792.47;;;17.43;10.84
64698;BME280;51124;53.394;-6.294;2023-02-12T05:43:38;102798.21;;;17.91;10.38
64698;BME280;51124;53.394;-6.294;2023-02-12T05:46:05;102794.18;;;18.39;10.03
64698;BME280;51124;53.394;-6.294;2023-02-12T05:48:32;102792.71;;;17.65;9.86
64698;BME280;51124;53.394;-6.294;2023-02-12T05:51:02;102794.75;;;17.99;9.68
64698;BME280;51124;53.394;-6.294;2023-02-12T05:53:27;102792.58;;;17.35;9.42
64698;BME280;51124;53.394;-6.294;2023-02-12T05:55:52;102791.75;;;17.64;9.26
64698;BME280;51124;53.394;-6.294;2023-02-12T05:58:18;102790.65;;;17.82;9.16
64698;BME280;51124;53.394;-6.294;2023-02-12T06:00:43;102793.43;;;16.90;9.03
64698;BME280;51124;53.394;-6.294;2023-02-12T06:03:08;102789.27;;;17.86;8.86
64698;BME280;51124;53.394;-6.294;2023-02-12T06:05:34;102791.29;;;17.81;8.91
64698;BME280;51124;53.394;-6.294;2023-02-12T06:07:59;102790.17;;;17.18;8.85
64698;BME280;51124;53.394;-6.294;2023-02-12T06:10:24;102788.98;;;17.37;8.78
64698;BME280;51124;53.394;-6.294;2023-02-12T06:12:53;102790.43;;;17.83;8.82
64698;BME280;51124;53.394;-6.294;2023-02-12T06:15:19;102786.59;;;18.23;8.64
64698;BME280;51124;53.394;-6.294;2023-02-12T06:17:44;102787.00;;;17.72;8.53
64698;BME280;51124;53.394;-6.294;2023-02-12T06:20:10;102787.88;;;18.08;8.60
64698;BME280;51124;53.394;-6.294;2023-02-12T06:22:35;102786.42;;;17.79;8.52
64698;BME280;51124;53.394;-6.294;2023-02-12T06:25:00;102775.98;;;17.52;8.70
64698;BME280;51124;53.394;-6.294;2023-02-12T06:27:26;102779.86;;;17.31;8.47
64698;BME280;51124;53.394;-6.294;2023-02-12T06:29:51;102776.13;;;17.27;8.45
64698;BME280;51124;53.394;-6.294;2023-02-12T06:32:16;102773.41;;;17.31;8.41
64698;BME280;51124;53.394;-6.294;2023-02-12T06:34:41;102780.01;;;17.38;8.49
64698;BME280;51124;53.394;-6.294;2023-02-12T06:37:07;102774.44;;;16.83;8.51
64698;BME280;51124;53.394;-6.294;2023-02-12T06:39:32;102769.30;;;17.09;8.41
64698;BME280;51124;53.394;-6.294;2023-02-12T06:41:57;102770.95;;;18.03;8.47
64698;BME280;51124;53.394;-6.294;2023-02-12T06:44:23;102766.61;;;17.39;8.40
64698;BME280;51124;53.394;-6.294;2023-02-12T06:46:48;102771.10;;;18.00;8.36
64698;BME280;51124;53.394;-6.294;2023-02-12T06:49:14;102768.46;;;17.82;8.33
64698;BME280;51124;53.394;-6.294;2023-02-12T06:51:39;102767.83;;;17.53;8.36
64698;BME280;51124;53.394;-6.294;2023-02-12T06:54:04;102764.32;;;17.80;8.34
64698;BME280;51124;53.394;-6.294;2023-02-12T06:56:30;102763.72;;;17.72;8.36
64698;BME280;51124;53.394;-6.294;2023-02-12T06:58:54;102764.02;;;17.89;8.36
64698;BME280;51124;53.394;-6.294;2023-02-12T07:01:20;102756.11;;;18.07;8.33
64698;BME280;51124;53.394;-6.294;2023-02-12T07:03:47;102758.88;;;18.15;8.39
64698;BME280;51124;53.394;-6.294;2023-02-12T07:06:10;102762.89;;;18.00;8.40
64698;BME280;51124;53.394;-6.294;2023-02-12T07:08:45;102761.73;;;19.02;8.43
64698;BME280;51124;53.394;-6.294;2023-02-12T07:11:22;102765.28;;;17.69;8.55
64698;BME280;51124;53.394;-6.294;2023-02-12T07:13:45;102762.71;;;17.75;8.50
64698;BME280;51124;53.394;-6.294;2023-02-12T07:16:19;102770.56;;;17.53;8.54
64698;BME280;51124;53.394;-6.294;2023-02-12T07:18:53;102772.68;;;17.44;8.54
64698;BME280;51124;53.394;-6.294;2023-02-12T07:21:26;102763.63;;;18.64;8.43
64698;BME280;51124;53.394;-6.294;2023-02-12T07:24:00;102768.54;;;18.27;8.48
64698;BME280;51124;53.394;-6.294;2023-02-12T07:26:34;102772.07;;;17.20;8.48
64698;BME280;51124;53.394;-6.294;2023-02-12T07:29:07;102775.36;;;17.00;8.48
64698;BME280;51124;53.394;-6.294;2023-02-12T07:31:40;102773.11;;;16.81;8.40
64698;BME280;51124;53.394;-6.294;2023-02-12T07:34:14;102777.89;;;17.37;8.24
64698;BME280;51124;53.394;-6.294;2023-02-12T07:36:47;102778.47;;;20.37;8.41
64698;BME280;51124;53.394;-6.294;2023-02-12T07:39:21;102783.39;;;19.45;9.04
64698;BME280;51124;53.394;-6.294;2023-02-12T07:41:55;102790.46;;;18.65;9.35
64698;BME280;51124;53.394;-6.294;2023-02-12T07:44:29;102791.74;;;18.20;9.24
64698;BME280;51124;53.394;-6.294;2023-02-12T07:47:03;102788.86;;;20.97;9.46
64698;BME280;51124;53.394;-6.294;2023-02-12T07:49:37;102793.91;;;20.31;9.88
64698;BME280;51124;53.394;-6.294;2023-02-12T07:52:11;102797.29;;;20.44;10.29
64698;BME280;51124;53.394;-6.294;2023-02-12T07:54:46;102801.41;;;19.89;10.42
64698;BME280;51124;53.394;-6.294;2023-02-12T07:57:20;102802.68;;;20.19;10.64
64698;BME280;51124;53.394;-6.294;2023-02-12T07:59:54;102800.76;;;19.70;10.68
64698;BME280;51124;53.394;-6.294;2023-02-12T08:02:28;102804.38;;;20.13;10.72
64698;BME280;51124;53.394;-6.294;2023-02-12T08:05:02;102808.90;;;19.34;10.89
64698;BME280;51124;53.394;-6.294;2023-02-12T08:07:35;102810.07;;;19.53;10.94
64698;BME280;51124;53.394;-6.294;2023-02-12T08:10:10;102813.69;;;20.25;10.87
64698;BME280;51124;53.394;-6.294;2023-02-12T08:12:44;102825.71;;;19.33;10.95
64698;BME280;51124;53.394;-6.294;2023-02-12T08:15:18;102824.58;;;19.66;10.89
64698;BME280;51124;53.394;-6.294;2023-02-12T08:17:52;102824.72;;;19.18;10.93
64698;BME280;51124;53.394;-6.294;2023-02-12T08:20:26;102817.45;;;19.88;10.94
64698;BME280;51124;53.394;-6.294;2023-02-12T08:23:00;102821.13;;;20.07;10.97
64698;BME280;51124;53.394;-6.294;2023-02-12T08:25:34;102823.68;;;19.51;11.03
64698;BME280;51124;53.394;-6.294;2023-02-12T08:28:08;102817.31;;;19.32;11.01
64698;BME280;51124;53.394;-6.294;2023-02-12T08:30:42;102819.17;;;19.64;10.95
64698;BME280;51124;53.394;-6.294;2023-02-12T08:33:16;102823.94;;;19.74;11.04
64698;BME280;51124;53.394;-6.294;2023-02-12T08:35:50;102824.48;;;19.06;11.06
64698;BME280;51124;53.394;-6.294;2023-02-12T08:38:22;102829.71;;;17.42;10.78
64698;BME280;51124;53.394;-6.294;2023-02-12T08:40:55;102825.41;;;17.76;10.41
64698;BME280;51124;53.394;-6.294;2023-02-12T08:43:29;102826.37;;;17.87;9.95
64698;BME280;51124;53.394;-6.294;2023-02-12T08:46:04;102818.11;;;18.04;9.74
64698;BME280;51124;53.394;-6.294;2023-02-12T08:48:38;102824.77;;;17.63;9.52
64698;BME280;51124;53.394;-6.294;2023-02-12T08:51:14;102818.35;;;17.49;9.39
64698;BME280;51124;53.394;-6.294;2023-02-12T08:53:41;102814.78;;;17.78;9.19
64698;BME280;51124;53.394;-6.294;2023-02-12T08:56:05;102812.15;;;17.40;9.12
64698;BME280;51124;53.394;-6.294;2023-02-12T08:58:40;102812.97;;;16.71;9.02
64698;BME280;51124;53.394;-6.294;2023-02-12T09:01:15;102814.81;;;17.74;8.91
64698;BME280;51124;53.394;-6.294;2023-02-12T09:03:39;102814.79;;;16.87;8.87
64698;BME280;51124;53.394;-6.294;2023-02-12T09:06:13;102814.99;;;17.62;8.84
64698;BME280;51124;53.394;-6.294;2023-02-12T09:08:48;102814.65;;;17.57;8.76
64698;BME280;51124;53.394;-6.294;2023-02-12T09:11:24;102812.15;;;17.04;8.66
64698;BME280;51124;53.394;-6.294;2023-02-12T09:13:47;102810.79;;;17.36;8.57
64698;BME280;51124;53.394;-6.294;2023-02-12T09:16:21;102812.47;;;17.77;8.56
64698;BME280;51124;53.394;-6.294;2023-02-12T09:18:54;102808.78;;;18.24;8.62
64698;BME280;51124;53.394;-6.294;2023-02-12T09:21:28;102817.48;;;18.10;8.46
64698;BME280;51124;53.394;-6.294;2023-02-12T09:24:02;102811.42;;;17.49;8.46
64698;BME280;51124;53.394;-6.294;2023-02-12T09:26:36;102809.52;;;17.78;8.46
64698;BME280;51124;53.394;-6.294;2023-02-12T09:29:09;102806.06;;;17.49;8.41
64698;BME280;51124;53.394;-6.294;2023-02-12T09:31:43;102798.19;;;17.64;8.34
64698;BME280;51124;53.394;-6.294;2023-02-12T09:34:16;102793.56;;;17.36;8.96
64698;BME280;51124;53.394;-6.294;2023-02-12T09:36:50;102791.25;;;18.11;8.79
64698;BME280;51124;53.394;-6.294;2023-02-12T09:39:23;102786.66;;;18.20;8.84
64698;BME280;51124;53.394;-6.294;2023-02-12T09:42:10;102781.85;;;17.67;8.78
64698;BME280;51124;53.394;-6.294;2023-02-12T09:44:34;102786.70;;;17.65;8.77
64698;BME280;51124;53.394;-6.294;2023-02-12T09:47:02;102782.73;;;17.75;8.73
64698;BME280;51124;53.394;-6.294;2023-02-12T09:49:43;102774.24;;;17.30;8.63
64698;BME280;51124;53.394;-6.294;2023-02-12T09:52:02;102776.53;;;17.01;8.67
64698;BME280;51124;53.394;-6.294;2023-02-12T09:54:38;102776.29;;;17.33;8.61
64698;BME280;51124;53.394;-6.294;2023-02-12T09:57:16;102769.85;;;16.73;8.61
64698;BME280;51124;53.394;-6.294;2023-02-12T09:59:44;102769.90;;;17.57;8.56
64698;BME280;51124;53.394;-6.294;2023-02-12T10:02:11;102774.40;;;18.07;8.75
64698;BME280;51124;53.394;-6.294;2023-02-12T10:04:36;102767.21;;;17.28;8.74
64698;BME280;51124;53.394;-6.294;2023-02-12T10:07:20;102774.47;;;18.18;8.73
64698;BME280;51124;53.394;-6.294;2023-02-12T10:09:54;102774.34;;;16.43;8.77
64698;BME280;51124;53.394;-6.294;2023-02-12T10:12:18;102770.00;;;16.21;8.66
64698;BME280;51124;53.394;-6.294;2023-02-12T10:14:56;102776.39;;;18.12;8.60
64698;BME280;51124;53.394;-6.294;2023-02-12T10:17:22;102775.95;;;17.14;8.57
64698;BME280;51124;53.394;-6.294;2023-02-12T10:20:03;102774.45;;;17.84;8.86
64698;BME280;51124;53.394;-6.294;2023-02-12T10:22:25;102769.11;;;18.08;9.19
64698;BME280;51124;53.394;-6.294;2023-02-12T10:24:51;102763.92;;;16.59;9.49
64698;BME280;51124;53.394;-6.294;2023-02-12T10:27:22;102765.96;;;17.61;9.12
64698;BME280;51124;53.394;-6.294;2023-02-12T10:29:48;102768.76;;;17.65;9.10
64698;BME280;51124;53.394;-6.294;2023-02-12T10:32:24;102770.72;;;17.52;9.24
64698;BME280;51124;53.394;-6.294;2023-02-12T10:34:50;102767.79;;;19.51;9.10
64698;BME280;51124;53.394;-6.294;2023-02-12T10:37:30;102774.01;;;20.58;9.30
64698;BME280;51124;53.394;-6.294;2023-02-12T10:40:00;102767.33;;;20.29;9.45
64698;BME280;51124;53.394;-6.294;2023-02-12T10:42:35;102767.91;;;18.95;9.25
64698;BME280;51124;53.394;-6.294;2023-02-12T10:44:59;102769.27;;;19.20;9.06
64698;BME280;51124;53.394;-6.294;2023-02-12T10:47:32;102765.72;;;21.28;9.28
64698;BME280;51124;53.394;-6.294;2023-02-12T10:50:17;102765.51;;;20.65;9.74
64698;BME280;51124;53.394;-6.294;2023-02-12T10:52:45;102761.23;;;19.48;10.11
64698;BME280;51124;53.394;-6.294;2023-02-12T10:55:24;102764.59;;;19.70;10.25
64698;BME280;51124;53.394;-6.294;2023-02-12T10:57:39;102763.03;;;19.22;10.43
64698;BME280;51124;53.394;-6.294;2023-02-12T11:00:21;102761.55;;;19.34;10.53
64698;BME280;51124;53.394;-6.294;2023-02-12T11:03:00;102760.11;;;18.62;10.84
64698;BME280;51124;53.394;-6.294;2023-02-12T11:05:23;102760.52;;;18.50;10.79
64698;BME280;51124;53.394;-6.294;2023-02-12T11:07:50;102758.87;;;19.45;10.55
64698;BME280;51124;53.394;-6.294;2023-02-12T11:10:19;102762.83;;;19.15;10.81
64698;BME280;51124;53.394;-6.294;2023-02-12T11:12:44;102751.35;;;19.14;10.84
64698;BME280;51124;53.394;-6.294;2023-02-12T11:15:21;102753.87;;;19.11;10.87
64698;BME280;51124;53.394;-6.294;2023-02-12T11:17:55;102750.58;;;19.45;10.78
64698;BME280;51124;53.394;-6.294;2023-02-12T11:20:23;102751.78;;;18.76;10.99
64698;BME280;51124;53.394;-6.294;2023-02-12T11:22:50;102753.69;;;20.53;10.45
64698;BME280;51124;53.394;-6.294;2023-02-12T11:25:15;102756.45;;;20.67;10.43
64698;BME280;51124;53.394;-6.294;2023-02-12T11:28:14;102752.77;;;20.07;10.51
64698;BME280;51124;53.394;-6.294;2023-02-12T11:30:19;102745.35;;;20.29;10.48
64698;BME280;51124;53.394;-6.294;2023-02-12T11:32:44;102746.20;;;20.30;10.45
64698;BME280;51124;53.394;-6.294;2023-02-12T11:35:19;102739.35;;;20.33;10.45
64698;BME280;51124;53.394;-6.294;2023-02-12T11:37:45;102736.77;;;18.63;10.18
64698;BME280;51124;53.394;-6.294;2023-02-12T11:40:16;102736.11;;;18.55;9.86
64698;BME280;51124;53.394;-6.294;2023-02-12T11:42:46;102731.21;;;19.22;9.47
64698;BME280;51124;53.394;-6.294;2023-02-12T11:45:15;102730.20;;;18.56;9.79
64698;BME280;51124;53.394;-6.294;2023-02-12T11:47:40;102730.92;;;18.81;9.84
64698;BME280;51124;53.394;-6.294;2023-02-12T11:50:24;102731.24;;;17.97;10.03
64698;BME280;51124;53.394;-6.294;2023-02-12T11:52:50;102727.00;;;18.65;9.36
64698;BME280;51124;53.394;-6.294;2023-02-12T11:55:21;102720.81;;;18.17;8.28
64698;BME280;51124;53.394;-6.294;2023-02-12T11:57:47;102716.34;;;18.97;8.33
64698;BME280;51124;53.394;-6.294;2023-02-12T12:00:14;102718.83;;;18.88;7.41
64698;BME280;51124;53.394;-6.294;2023-02-12T12:02:42;102720.83;;;18.81;7.56
64698;BME280;51124;53.394;-6.294;2023-02-12T12:05:12;102714.14;;;19.63;6.60
64698;BME280;51124;53.394;-6.294;2023-02-12T12:07:39;102715.89;;;19.50;6.52
64698;BME280;51124;53.394;-6.294;2023-02-12T12:10:11;102712.60;;;18.46;6.71
64698;BME280;51124;53.394;-6.294;2023-02-12T12:12:39;102715.96;;;18.65;6.53
64698;BME280;51124;53.394;-6.294;2023-02-12T12:15:11;102691.45;;;19.94;6.54
64698;BME280;51124;53.394;-6.294;2023-02-12T12:17:37;102686.87;;;18.95;6.57
64698;BME280;51124;53.394;-6.294;2023-02-12T12:20:09;102683.81;;;19.74;6.56
64698;BME280;51124;53.394;-6.294;2023-02-12T12:22:43;102674.70;;;19.99;6.42
64698;BME280;51124;53.394;-6.294;2023-02-12T12:25:05;102672.96;;;20.10;6.58
64698;BME280;51124;53.394;-6.294;2023-02-12T12:27:34;102672.70;;;19.16;6.04
64698;BME280;51124;53.394;-6.294;2023-02-12T12:29:59;102664.41;;;18.80;6.02
64698;BME280;51124;53.394;-6.294;2023-02-12T12:32:28;102663.22;;;18.90;6.03
64698;BME280;51124;53.394;-6.294;2023-02-12T12:34:53;102658.25;;;18.35;6.28
64698;BME280;51124;53.394;-6.294;2023-02-12T12:37:32;102655.60;;;18.74;6.03
64698;BME280;51124;53.394;-6.294;2023-02-12T12:40:19;102647.99;;;19.18;5.79
64698;BME280;51124;53.394;-6.294;2023-02-12T12:43:10;102647.19;;;18.22;5.87
64698;BME280;51124;53.394;-6.294;2023-02-12T12:45:05;102643.48;;;18.13;6.01
64698;BME280;51124;53.394;-6.294;2023-02-12T12:47:25;102645.09;;;17.83;5.79
64698;BME280;51124;53.394;-6.294;2023-02-12T12:49:59;102632.68;;;18.21;5.75
64698;BME280;51124;53.394;-6.294;2023-02-12T12:52:41;102630.84;;;18.05;5.56
64698;BME280;51124;53.394;-6.294;2023-02-12T12:55:07;102641.11;;;17.79;5.72
64698;BME280;51124;53.394;-6.294;2023-02-12T12:57:36;102637.56;;;18.41;5.58
64698;BME280;51124;53.394;-6.294;2023-02-12T13:00:07;102636.90;;;19.24;5.56
64698;BME280;51124;53.394;-6.294;2023-02-12T13:02:43;102639.03;;;19.15;5.41